sensor_id;sensor_type;location;lat;lon;timestamp;temperature;humidity
69054;DHT22;56125;52.242;4.756;2022-12-08T00:02:11;17.50;50.00
69054;DHT22;56125;52.242;4.756;2022-12-08T00:07:13;17.60;50.00
69054;DHT22;56125;52.242;4.756;2022-12-08T00:12:33;17.60;49.90
69054;DHT22;56125;52.242;4.756;2022-12-08T00:17:34;17.50;49.70
69054;DHT22;56125;52.242;4.756;2022-12-08T00:22:35;17.60;49.60
69054;DHT22;56125;52.242;4.756;2022-12-08T00:27:36;17.50;49.60
69054;DHT22;56125;52.242;4.756;2022-12-08T00:32:38;17.50;49.50
69054;DHT22;56125;52.242;4.756;2022-12-08T00:37:39;17.50;49.50
69054;DHT22;56125;52.242;4.756;2022-12-08T00:42:40;17.50;49.30
69054;DHT22;56125;52.242;4.756;2022-12-08T00:47:41;17.50;49.20
69054;DHT22;56125;52.242;4.756;2022-12-08T00:52:42;17.50;49.00
69054;DHT22;56125;52.242;4.756;2022-12-08T00:57:43;17.50;48.90
69054;DHT22;56125;52.242;4.756;2022-12-08T01:02:44;17.50;49.00
69054;DHT22;56125;52.242;4.756;2022-12-08T01:07:45;17.50;48.80
69054;DHT22;56125;52.242;4.756;2022-12-08T01:12:48;17.50;48.70
69054;DHT22;56125;52.242;4.756;2022-12-08T01:17:49;17.40;48.50
69054;DHT22;56125;52.242;4.756;2022-12-08T01:22:50;17.50;48.60
69054;DHT22;56125;52.242;4.756;2022-12-08T01:27:52;17.50;48.50
69054;DHT22;56125;52.242;4.756;2022-12-08T01:32:53;17.40;48.40
69054;DHT22;56125;52.242;4.756;2022-12-08T01:37:54;17.40;48.30
69054;DHT22;56125;52.242;4.756;2022-12-08T01:42:55;17.40;48.30
69054;DHT22;56125;52.242;4.756;2022-12-08T01:47:59;17.40;48.20
69054;DHT22;56125;52.242;4.756;2022-12-08T01:53:19;17.40;48.10
69054;DHT22;56125;52.242;4.756;2022-12-08T01:58:27;17.40;48.10
69054;DHT22;56125;52.242;4.756;2022-12-08T02:03:40;17.40;48.10
69054;DHT22;56125;52.242;4.756;2022-12-08T02:08:42;17.40;48.10
69054;DHT22;56125;52.242;4.756;2022-12-08T02:13:44;17.40;48.10
69054;DHT22;56125;52.242;4.756;2022-12-08T02:24:22;17.40;47.90
69054;DHT22;56125;52.242;4.756;2022-12-08T02:29:48;17.40;47.80
69054;DHT22;56125;52.242;4.756;2022-12-08T02:40:22;17.40;47.90
69054;DHT22;56125;52.242;4.756;2022-12-08T02:45:35;17.30;47.80
69054;DHT22;56125;52.242;4.756;2022-12-08T02:50:37;17.30;47.70
69054;DHT22;56125;52.242;4.756;2022-12-08T03:12:30;17.40;47.60
69054;DHT22;56125;52.242;4.756;2022-12-08T03:17:35;17.30;47.50
69054;DHT22;56125;52.242;4.756;2022-12-08T03:22:38;17.30;47.50
69054;DHT22;56125;52.242;4.756;2022-12-08T03:27:40;17.30;47.40
69054;DHT22;56125;52.242;4.756;2022-12-08T03:32:55;17.40;47.50
69054;DHT22;56125;52.242;4.756;2022-12-08T03:38:10;17.30;47.30
69054;DHT22;56125;52.242;4.756;2022-12-08T03:43:11;17.40;47.40
69054;DHT22;56125;52.242;4.756;2022-12-08T03:48:12;17.40;47.40
69054;DHT22;56125;52.242;4.756;2022-12-08T03:53:13;17.40;47.40
69054;DHT22;56125;52.242;4.756;2022-12-08T03:58:14;17.40;47.30
69054;DHT22;56125;52.242;4.756;2022-12-08T04:03:15;17.40;47.30
69054;DHT22;56125;52.242;4.756;2022-12-08T04:08:16;17.40;47.20
69054;DHT22;56125;52.242;4.756;2022-12-08T04:13:18;17.40;47.20
69054;DHT22;56125;52.242;4.756;2022-12-08T04:18:19;17.40;47.10
69054;DHT22;56125;52.242;4.756;2022-12-08T04:23:20;17.40;47.00
69054;DHT22;56125;52.242;4.756;2022-12-08T04:28:21;17.40;47.00
69054;DHT22;56125;52.242;4.756;2022-12-08T04:33:22;17.40;46.90
69054;DHT22;56125;52.242;4.756;2022-12-08T04:38:23;17.40;46.90
69054;DHT22;56125;52.242;4.756;2022-12-08T04:43:24;17.40;46.80
69054;DHT22;56125;52.242;4.756;2022-12-08T04:48:25;17.50;46.80
69054;DHT22;56125;52.242;4.756;2022-12-08T04:53:27;17.40;46.60
69054;DHT22;56125;52.242;4.756;2022-12-08T04:58:28;17.50;46.60
69054;DHT22;56125;52.242;4.756;2022-12-08T05:03:29;17.50;46.70
69054;DHT22;56125;52.242;4.756;2022-12-08T05:08:30;17.50;46.40
69054;DHT22;56125;52.242;4.756;2022-12-08T05:13:32;17.50;47.60
69054;DHT22;56125;52.242;4.756;2022-12-08T05:18:33;17.50;46.30
69054;DHT22;56125;52.242;4.756;2022-12-08T05:23:34;17.60;46.50
69054;DHT22;56125;52.242;4.756;2022-12-08T05:28:36;17.60;46.00
69054;DHT22;56125;52.242;4.756;2022-12-08T05:33:37;17.60;46.40
69054;DHT22;56125;52.242;4.756;2022-12-08T05:38:38;17.60;46.00
69054;DHT22;56125;52.242;4.756;2022-12-08T05:43:39;17.70;46.20
69054;DHT22;56125;52.242;4.756;2022-12-08T05:48:41;17.70;45.90
69054;DHT22;56125;52.242;4.756;2022-12-08T05:53:42;17.70;47.10
69054;DHT22;56125;52.242;4.756;2022-12-08T05:58:43;17.70;45.70
69054;DHT22;56125;52.242;4.756;2022-12-08T06:03:44;17.70;46.10
69054;DHT22;56125;52.242;4.756;2022-12-08T06:08:45;17.80;45.70
69054;DHT22;56125;52.242;4.756;2022-12-08T06:13:46;17.80;45.90
69054;DHT22;56125;52.242;4.756;2022-12-08T06:18:48;17.90;45.60
69054;DHT22;56125;52.242;4.756;2022-12-08T06:23:51;17.90;45.80
69054;DHT22;56125;52.242;4.756;2022-12-08T06:28:52;17.90;45.30
69054;DHT22;56125;52.242;4.756;2022-12-08T06:33:54;17.90;45.60
69054;DHT22;56125;52.242;4.756;2022-12-08T06:38:55;17.90;45.30
69054;DHT22;56125;52.242;4.756;2022-12-08T06:43:56;17.90;45.40
69054;DHT22;56125;52.242;4.756;2022-12-08T06:48:57;17.90;45.20
69054;DHT22;56125;52.242;4.756;2022-12-08T06:53:58;17.90;45.60
69054;DHT22;56125;52.242;4.756;2022-12-08T06:58:59;17.90;45.70
69054;DHT22;56125;52.242;4.756;2022-12-08T07:04:00;18.00;45.50
69054;DHT22;56125;52.242;4.756;2022-12-08T07:09:01;18.00;45.60
69054;DHT22;56125;52.242;4.756;2022-12-08T07:14:03;18.40;43.90
69054;DHT22;56125;52.242;4.756;2022-12-08T07:19:05;18.60;44.40
69054;DHT22;56125;52.242;4.756;2022-12-08T07:24:06;18.80;43.60
69054;DHT22;56125;52.242;4.756;2022-12-08T07:29:08;18.80;43.90
69054;DHT22;56125;52.242;4.756;2022-12-08T07:34:11;18.90;43.40
69054;DHT22;56125;52.242;4.756;2022-12-08T07:39:12;19.00;43.60
69054;DHT22;56125;52.242;4.756;2022-12-08T07:44:13;19.00;43.60
69054;DHT22;56125;52.242;4.756;2022-12-08T07:49:14;19.00;44.30
69054;DHT22;56125;52.242;4.756;2022-12-08T07:54:15;18.90;44.60
69054;DHT22;56125;52.242;4.756;2022-12-08T07:59:16;18.90;44.90
69054;DHT22;56125;52.242;4.756;2022-12-08T08:04:17;18.90;44.80
69054;DHT22;56125;52.242;4.756;2022-12-08T08:09:18;19.00;44.90
69054;DHT22;56125;52.242;4.756;2022-12-08T08:14:19;19.00;44.90
69054;DHT22;56125;52.242;4.756;2022-12-08T08:19:20;19.00;45.10
69054;DHT22;56125;52.242;4.756;2022-12-08T08:24:21;19.00;45.20
69054;DHT22;56125;52.242;4.756;2022-12-08T08:29:24;19.10;45.40
69054;DHT22;56125;52.242;4.756;2022-12-08T08:34:25;19.00;45.20
69054;DHT22;56125;52.242;4.756;2022-12-08T08:39:26;19.10;45.40
69054;DHT22;56125;52.242;4.756;2022-12-08T08:44:27;19.10;45.40
69054;DHT22;56125;52.242;4.756;2022-12-08T08:49:28;19.10;45.40
69054;DHT22;56125;52.242;4.756;2022-12-08T08:54:29;19.10;45.40
69054;DHT22;56125;52.242;4.756;2022-12-08T08:59:30;19.10;45.40
69054;DHT22;56125;52.242;4.756;2022-12-08T09:04:31;19.10;45.40
69054;DHT22;56125;52.242;4.756;2022-12-08T09:09:32;19.10;45.40
69054;DHT22;56125;52.242;4.756;2022-12-08T09:14:34;19.10;45.30
69054;DHT22;56125;52.242;4.756;2022-12-08T09:19:35;19.20;45.20
69054;DHT22;56125;52.242;4.756;2022-12-08T09:24:36;19.30;45.20
69054;DHT22;56125;52.242;4.756;2022-12-08T09:29:37;19.30;45.10
69054;DHT22;56125;52.242;4.756;2022-12-08T09:34:38;19.30;45.10
69054;DHT22;56125;52.242;4.756;2022-12-08T09:39:39;19.50;45.50
69054;DHT22;56125;52.242;4.756;2022-12-08T09:44:48;19.80;42.70
69054;DHT22;56125;52.242;4.756;2022-12-08T09:50:01;19.90;44.10
69054;DHT22;56125;52.242;4.756;2022-12-08T09:55:19;19.90;44.20
69054;DHT22;56125;52.242;4.756;2022-12-08T10:00:22;19.90;44.30
69054;DHT22;56125;52.242;4.756;2022-12-08T10:05:25;19.90;44.10
69054;DHT22;56125;52.242;4.756;2022-12-08T10:10:37;19.90;44.40
69054;DHT22;56125;52.242;4.756;2022-12-08T10:20:44;19.70;44.80
69054;DHT22;56125;52.242;4.756;2022-12-08T10:25:51;19.70;45.00
69054;DHT22;56125;52.242;4.756;2022-12-08T10:30:54;19.60;44.80
69054;DHT22;56125;52.242;4.756;2022-12-08T10:35:57;19.50;44.70
69054;DHT22;56125;52.242;4.756;2022-12-08T10:41:03;19.50;45.00
69054;DHT22;56125;52.242;4.756;2022-12-08T10:46:11;19.40;44.50
69054;DHT22;56125;52.242;4.756;2022-12-08T10:51:39;19.40;44.20
69054;DHT22;56125;52.242;4.756;2022-12-08T10:56:52;19.30;44.40
69054;DHT22;56125;52.242;4.756;2022-12-08T11:01:55;19.30;44.40
69054;DHT22;56125;52.242;4.756;2022-12-08T11:06:57;19.30;44.30
69054;DHT22;56125;52.242;4.756;2022-12-08T11:11:59;19.20;44.30
69054;DHT22;56125;52.242;4.756;2022-12-08T11:17:15;19.20;44.30
69054;DHT22;56125;52.242;4.756;2022-12-08T11:22:30;19.20;44.40
69054;DHT22;56125;52.242;4.756;2022-12-08T11:27:34;19.10;44.10
69054;DHT22;56125;52.242;4.756;2022-12-08T11:32:36;19.10;44.30
69054;DHT22;56125;52.242;4.756;2022-12-08T11:37:42;19.10;44.10
69054;DHT22;56125;52.242;4.756;2022-12-08T11:48:16;19.00;44.00
69054;DHT22;56125;52.242;4.756;2022-12-08T11:53:28;19.00;44.20
69054;DHT22;56125;52.242;4.756;2022-12-08T11:58:38;19.00;43.90
69054;DHT22;56125;52.242;4.756;2022-12-08T12:03:43;19.00;44.20
69054;DHT22;56125;52.242;4.756;2022-12-08T12:14:28;18.90;44.10
69054;DHT22;56125;52.242;4.756;2022-12-08T12:19:35;18.90;43.80
69054;DHT22;56125;52.242;4.756;2022-12-08T12:24:37;18.80;43.90
69054;DHT22;56125;52.242;4.756;2022-12-08T12:29:49;18.80;43.80
69054;DHT22;56125;52.242;4.756;2022-12-08T12:34:56;18.80;43.90
69054;DHT22;56125;52.242;4.756;2022-12-08T12:40:01;18.80;43.70
69054;DHT22;56125;52.242;4.756;2022-12-08T12:50:40;18.70;43.60
69054;DHT22;56125;52.242;4.756;2022-12-08T13:00:45;18.70;43.70
69054;DHT22;56125;52.242;4.756;2022-12-08T13:05:50;18.60;43.70
69054;DHT22;56125;52.242;4.756;2022-12-08T13:11:01;18.60;43.60
69054;DHT22;56125;52.242;4.756;2022-12-08T13:26:14;18.50;43.40
69054;DHT22;56125;52.242;4.756;2022-12-08T13:31:35;18.50;43.40
69054;DHT22;56125;52.242;4.756;2022-12-08T13:36:39;18.40;43.30
69054;DHT22;56125;52.242;4.756;2022-12-08T13:41:49;18.40;43.30
69054;DHT22;56125;52.242;4.756;2022-12-08T13:46:54;18.40;43.30
69054;DHT22;56125;52.242;4.756;2022-12-08T13:51:57;18.40;43.40
69054;DHT22;56125;52.242;4.756;2022-12-08T13:56:58;18.30;43.40
69054;DHT22;56125;52.242;4.756;2022-12-08T14:02:13;18.30;43.50
69054;DHT22;56125;52.242;4.756;2022-12-08T14:07:15;18.30;43.50
69054;DHT22;56125;52.242;4.756;2022-12-08T14:12:22;18.30;43.30
69054;DHT22;56125;52.242;4.756;2022-12-08T14:17:24;18.20;43.30
69054;DHT22;56125;52.242;4.756;2022-12-08T14:22:36;18.20;43.30
69054;DHT22;56125;52.242;4.756;2022-12-08T14:27:37;18.20;43.30
69054;DHT22;56125;52.242;4.756;2022-12-08T14:32:54;18.20;43.40
69054;DHT22;56125;52.242;4.756;2022-12-08T14:38:00;18.10;43.30
69054;DHT22;56125;52.242;4.756;2022-12-08T14:43:16;18.10;43.40
69054;DHT22;56125;52.242;4.756;2022-12-08T14:48:24;18.10;43.40
69054;DHT22;56125;52.242;4.756;2022-12-08T14:53:36;18.10;43.60
69054;DHT22;56125;52.242;4.756;2022-12-08T14:58:39;18.10;43.60
69054;DHT22;56125;52.242;4.756;2022-12-08T15:03:40;18.00;43.70
69054;DHT22;56125;52.242;4.756;2022-12-08T15:08:55;18.00;43.60
69054;DHT22;56125;52.242;4.756;2022-12-08T15:13:58;18.00;43.70
69054;DHT22;56125;52.242;4.756;2022-12-08T15:19:29;18.00;43.70
69054;DHT22;56125;52.242;4.756;2022-12-08T15:24:30;17.90;43.60
69054;DHT22;56125;52.242;4.756;2022-12-08T15:29:31;17.90;43.60
69054;DHT22;56125;52.242;4.756;2022-12-08T15:34:32;17.90;43.70
69054;DHT22;56125;52.242;4.756;2022-12-08T15:39:35;17.90;43.60
69054;DHT22;56125;52.242;4.756;2022-12-08T15:44:37;17.90;43.70
69054;DHT22;56125;52.242;4.756;2022-12-08T15:49:38;17.90;43.60
69054;DHT22;56125;52.242;4.756;2022-12-08T15:54:39;17.80;43.60
69054;DHT22;56125;52.242;4.756;2022-12-08T15:59:40;17.80;43.60
69054;DHT22;56125;52.242;4.756;2022-12-08T16:04:41;17.80;43.60
69054;DHT22;56125;52.242;4.756;2022-12-08T16:09:42;17.80;43.60
69054;DHT22;56125;52.242;4.756;2022-12-08T16:14:43;17.80;43.60
69054;DHT22;56125;52.242;4.756;2022-12-08T16:19:44;17.70;43.60
69054;DHT22;56125;52.242;4.756;2022-12-08T16:24:45;17.70;43.50
69054;DHT22;56125;52.242;4.756;2022-12-08T16:29:47;17.70;43.50
69054;DHT22;56125;52.242;4.756;2022-12-08T16:34:49;17.70;43.50
69054;DHT22;56125;52.242;4.756;2022-12-08T16:39:51;17.70;43.50
69054;DHT22;56125;52.242;4.756;2022-12-08T16:44:52;17.70;43.60
69054;DHT22;56125;52.242;4.756;2022-12-08T16:49:53;17.70;43.50
69054;DHT22;56125;52.242;4.756;2022-12-08T16:54:54;17.60;43.30
69054;DHT22;56125;52.242;4.756;2022-12-08T16:59:55;17.60;43.30
69054;DHT22;56125;52.242;4.756;2022-12-08T17:04:56;17.60;43.50
69054;DHT22;56125;52.242;4.756;2022-12-08T17:09:57;17.60;43.40
69054;DHT22;56125;52.242;4.756;2022-12-08T17:15:01;17.60;43.50
69054;DHT22;56125;52.242;4.756;2022-12-08T17:20:06;17.60;43.60
69054;DHT22;56125;52.242;4.756;2022-12-08T17:25:07;17.60;43.50
69054;DHT22;56125;52.242;4.756;2022-12-08T17:30:10;17.50;43.70
69054;DHT22;56125;52.242;4.756;2022-12-08T17:35:14;17.50;43.70
69054;DHT22;56125;52.242;4.756;2022-12-08T17:40:15;17.50;43.50
69054;DHT22;56125;52.242;4.756;2022-12-08T17:45:16;17.50;43.60
69054;DHT22;56125;52.242;4.756;2022-12-08T17:50:18;17.50;44.10
69054;DHT22;56125;52.242;4.756;2022-12-08T17:55:19;17.50;44.20
69054;DHT22;56125;52.242;4.756;2022-12-08T18:00:20;17.50;44.50
69054;DHT22;56125;52.242;4.756;2022-12-08T18:05:21;17.50;44.70
69054;DHT22;56125;52.242;4.756;2022-12-08T18:10:22;17.50;44.70
69054;DHT22;56125;52.242;4.756;2022-12-08T18:15:24;17.50;44.70
69054;DHT22;56125;52.242;4.756;2022-12-08T18:20:25;17.50;44.70
69054;DHT22;56125;52.242;4.756;2022-12-08T18:25:26;17.50;44.80
69054;DHT22;56125;52.242;4.756;2022-12-08T18:30:27;17.50;44.80
69054;DHT22;56125;52.242;4.756;2022-12-08T18:35:28;17.50;45.20
69054;DHT22;56125;52.242;4.756;2022-12-08T18:40:30;17.60;46.30
69054;DHT22;56125;52.242;4.756;2022-12-08T18:45:36;17.50;46.40
69054;DHT22;56125;52.242;4.756;2022-12-08T18:50:40;17.60;47.20
69054;DHT22;56125;52.242;4.756;2022-12-08T18:55:44;17.60;47.30
69054;DHT22;56125;52.242;4.756;2022-12-08T19:00:46;17.60;46.90
69054;DHT22;56125;52.242;4.756;2022-12-08T19:05:47;17.60;46.80
69054;DHT22;56125;52.242;4.756;2022-12-08T19:10:48;17.60;46.80
69054;DHT22;56125;52.242;4.756;2022-12-08T19:15:49;17.60;46.70
69054;DHT22;56125;52.242;4.756;2022-12-08T19:20:50;17.50;46.60
69054;DHT22;56125;52.242;4.756;2022-12-08T19:25:56;17.50;46.60
69054;DHT22;56125;52.242;4.756;2022-12-08T19:30:57;17.50;46.40
69054;DHT22;56125;52.242;4.756;2022-12-08T19:36:02;17.50;46.40
69054;DHT22;56125;52.242;4.756;2022-12-08T19:41:04;17.50;46.40
69054;DHT22;56125;52.242;4.756;2022-12-08T19:46:23;17.50;46.40
69054;DHT22;56125;52.242;4.756;2022-12-08T19:51:25;17.50;46.60
69054;DHT22;56125;52.242;4.756;2022-12-08T19:56:26;17.50;46.60
69054;DHT22;56125;52.242;4.756;2022-12-08T20:01:27;17.50;46.60
69054;DHT22;56125;52.242;4.756;2022-12-08T20:06:28;17.50;46.60
69054;DHT22;56125;52.242;4.756;2022-12-08T20:11:29;17.50;46.60
69054;DHT22;56125;52.242;4.756;2022-12-08T20:16:30;17.50;46.70
69054;DHT22;56125;52.242;4.756;2022-12-08T20:21:31;17.50;46.70
69054;DHT22;56125;52.242;4.756;2022-12-08T20:26:32;17.50;47.70
69054;DHT22;56125;52.242;4.756;2022-12-08T20:31:33;17.50;46.70
69054;DHT22;56125;52.242;4.756;2022-12-08T20:36:35;17.50;47.50
69054;DHT22;56125;52.242;4.756;2022-12-08T20:41:36;17.50;46.60
69054;DHT22;56125;52.242;4.756;2022-12-08T20:46:37;17.50;46.70
69054;DHT22;56125;52.242;4.756;2022-12-08T20:51:38;17.40;46.60
69054;DHT22;56125;52.242;4.756;2022-12-08T20:56:40;17.50;46.70
69054;DHT22;56125;52.242;4.756;2022-12-08T21:01:41;17.50;46.60
69054;DHT22;56125;52.242;4.756;2022-12-08T21:06:42;17.50;46.60
69054;DHT22;56125;52.242;4.756;2022-12-08T21:11:44;17.40;46.20
69054;DHT22;56125;52.242;4.756;2022-12-08T21:16:45;17.40;46.10
69054;DHT22;56125;52.242;4.756;2022-12-08T21:21:46;17.40;46.00
69054;DHT22;56125;52.242;4.756;2022-12-08T21:26:47;17.40;45.80
69054;DHT22;56125;52.242;4.756;2022-12-08T21:31:48;17.40;46.70
69054;DHT22;56125;52.242;4.756;2022-12-08T21:36:49;17.40;45.60
69054;DHT22;56125;52.242;4.756;2022-12-08T21:41:50;17.40;45.50
69054;DHT22;56125;52.242;4.756;2022-12-08T21:47:10;17.40;45.50
69054;DHT22;56125;52.242;4.756;2022-12-08T21:52:11;17.40;45.30
69054;DHT22;56125;52.242;4.756;2022-12-08T21:57:12;17.90;45.70
69054;DHT22;56125;52.242;4.756;2022-12-08T22:02:13;17.30;45.20
69054;DHT22;56125;52.242;4.756;2022-12-08T22:07:15;17.30;45.20
69054;DHT22;56125;52.242;4.756;2022-12-08T22:12:16;17.30;45.10
69054;DHT22;56125;52.242;4.756;2022-12-08T22:17:17;17.30;45.10
69054;DHT22;56125;52.242;4.756;2022-12-08T22:22:19;17.30;45.20
69054;DHT22;56125;52.242;4.756;2022-12-08T22:27:20;17.30;45.00
69054;DHT22;56125;52.242;4.756;2022-12-08T22:32:21;17.30;45.10
69054;DHT22;56125;52.242;4.756;2022-12-08T22:37:22;17.30;45.00
69054;DHT22;56125;52.242;4.756;2022-12-08T22:42:23;17.30;45.00
69054;DHT22;56125;52.242;4.756;2022-12-08T22:47:24;17.20;44.90
69054;DHT22;56125;52.242;4.756;2022-12-08T22:52:25;17.30;45.00
69054;DHT22;56125;52.242;4.756;2022-12-08T22:57:27;17.20;44.90
69054;DHT22;56125;52.242;4.756;2022-12-08T23:02:28;17.20;44.90
69054;DHT22;56125;52.242;4.756;2022-12-08T23:07:29;17.20;44.80
69054;DHT22;56125;52.242;4.756;2022-12-08T23:12:30;17.20;44.90
69054;DHT22;56125;52.242;4.756;2022-12-08T23:17:31;17.20;44.90
69054;DHT22;56125;52.242;4.756;2022-12-08T23:22:32;17.20;44.90
69054;DHT22;56125;52.242;4.756;2022-12-08T23:27:34;17.20;44.80
69054;DHT22;56125;52.242;4.756;2022-12-08T23:32:35;17.20;44.90
69054;DHT22;56125;52.242;4.756;2022-12-08T23:37:36;17.20;44.80
69054;DHT22;56125;52.242;4.756;2022-12-08T23:42:37;17.20;44.80
69054;DHT22;56125;52.242;4.756;2022-12-08T23:47:38;17.20;44.70
69054;DHT22;56125;52.242;4.756;2022-12-08T23:52:39;17.10;44.80
69054;DHT22;56125;52.242;4.756;2022-12-08T23:57:40;17.10;44.70
